Time;durP1;ratioP1;P1;durP2;ratioP2;P2;SDS_P1;SDS_P2;PMS_P1;PMS_P2;Temp;Humidity;BMP_temperature;BMP_pressure;BME280_temperature;BME280_humidity;BME280_pressure;Samples;Min_cycle;Max_cycle;Signal;HPM_P1;HPM_P2
2023/09/10 00:02:10;;;;;;;18.70;16.58;;;;;;;;;;5009177;27;98532;-62
2023/09/10 00:04:37;;;;;;;18.25;16.65;;;;;;;;;;5008679;27;99101;-62
2023/09/10 00:07:03;;;;;;;21.15;18.50;;;;;;;;;;5009206;27;98498;-61
2023/09/10 00:09:30;;;;;;;21.88;16.60;;;;;;;;;;5016293;27;98532;-61
2023/09/10 00:11:56;;;;;;;20.75;18.65;;;;;;;;;;5009336;27;99555;-61
2023/09/10 00:14:22;;;;;;;17.33;13.07;;;;;;;;;;5008920;27;99536;-61
2023/09/10 00:16:49;;;;;;;18.15;15.55;;;;;;;;;;5013387;27;98587;-61
2023/09/10 00:19:15;;;;;;;23.33;14.98;;;;;;;;;;5009157;27;99294;-62
2023/09/10 00:21:42;;;;;;;17.58;15.32;;;;;;;;;;5025537;27;99607;-61
2023/09/10 00:24:10;;;;;;;20.63;14.73;;;;;;;;;;5016866;27;98472;-61
2023/09/10 00:26:37;;;;;;;15.70;14.15;;;;;;;;;;5008583;27;99555;-61
2023/09/10 00:29:03;;;;;;;17.85;14.95;;;;;;;;;;5009828;27;98306;-61
2023/09/10 00:31:31;;;;;;;18.00;16.10;;;;;;;;;;5009220;27;99107;-62
2023/09/10 00:33:58;;;;;;;17.40;15.82;;;;;;;;;;5013138;27;99494;-61
2023/09/10 00:36:24;;;;;;;14.95;13.48;;;;;;;;;;5008955;27;99145;-62
2023/09/10 00:38:51;;;;;;;15.90;14.35;;;;;;;;;;5007170;27;99919;-62
2023/09/10 00:41:17;;;;;;;17.08;14.35;;;;;;;;;;5007966;27;99523;-60
2023/09/10 00:43:44;;;;;;;21.35;13.38;;;;;;;;;;5012230;27;98584;-61
2023/09/10 00:46:10;;;;;;;16.60;12.57;;;;;;;;;;5010239;27;99463;-61
2023/09/10 00:48:37;;;;;;;15.85;14.35;;;;;;;;;;5012453;27;98873;-61
2023/09/10 00:51:04;;;;;;;16.85;15.30;;;;;;;;;;5009920;27;100225;-61
2023/09/10 00:53:30;;;;;;;16.75;13.38;;;;;;;;;;5008751;27;99776;-61
2023/09/10 00:55:57;;;;;;;15.55;14.00;;;;;;;;;;5012673;27;98510;-61
2023/09/10 00:58:23;;;;;;;15.60;13.55;;;;;;;;;;5012486;27;100419;-61
2023/09/10 01:00:50;;;;;;;15.32;13.38;;;;;;;;;;5007696;27;100206;-61
2023/09/10 01:03:16;;;;;;;12.90;11.50;;;;;;;;;;5008871;27;98518;-62
2023/09/10 01:05:43;;;;;;;16.70;14.68;;;;;;;;;;5011547;27;99465;-62
2023/09/10 01:08:09;;;;;;;15.05;13.45;;;;;;;;;;5012804;27;98464;-62
2023/09/10 01:10:41;;;;;;;16.45;14.80;;;;;;;;;;5008414;27;99227;-61
2023/09/10 01:13:33;;;;;;;20.52;14.82;;;;;;;;;;5007750;27;99436;-61
2023/09/10 01:16:06;;;;;;;23.92;18.15;;;;;;;;;;5012122;27;98596;-61
2023/09/10 01:18:45;;;;;;;16.35;14.93;;;;;;;;;;5008580;27;99294;-61
2023/09/10 01:21:23;;;;;;;20.20;17.75;;;;;;;;;;5008180;27;99760;-61
2023/09/10 01:24:02;;;;;;;21.30;16.80;;;;;;;;;;5025793;27;100051;-61
2023/09/10 01:26:28;;;;;;;19.80;17.10;;;;;;;;;;5011485;27;99229;-62
2023/09/10 01:28:54;;;;;;;17.98;16.35;;;;;;;;;;5010571;27;99512;-61
2023/09/10 01:31:21;;;;;;;18.17;16.38;;;;;;;;;;5008762;27;100408;-61
2023/09/10 01:33:56;;;;;;;18.88;17.13;;;;;;;;;;5007920;27;99415;-62
2023/09/10 01:36:23;;;;;;;19.77;17.88;;;;;;;;;;5008048;27;99093;-62
2023/09/10 01:39:09;;;;;;;17.05;12.93;;;;;;;;;;5007797;27;100218;-62
2023/09/10 01:41:37;;;;;;;20.77;17.30;;;;;;;;;;5015498;27;99466;-61
2023/09/10 01:44:04;;;;;;;21.98;19.88;;;;;;;;;;5008137;27;98057;-61
2023/09/10 01:46:32;;;;;;;18.95;17.30;;;;;;;;;;5013178;27;99616;-62
2023/09/10 01:48:59;;;;;;;22.23;20.00;;;;;;;;;;5009382;27;100739;-62
2023/09/10 01:51:25;;;;;;;16.23;14.63;;;;;;;;;;5021377;27;99258;-62
2023/09/10 01:53:51;;;;;;;20.33;15.70;;;;;;;;;;5015553;27;99606;-62
2023/09/10 01:56:18;;;;;;;15.23;13.80;;;;;;;;;;5011453;27;98512;-62
2023/09/10 01:58:44;;;;;;;17.50;15.65;;;;;;;;;;5011337;27;99222;-62
2023/09/10 02:01:11;;;;;;;20.45;16.95;;;;;;;;;;5014428;27;99547;-62
2023/09/10 02:03:37;;;;;;;17.13;15.57;;;;;;;;;;5011539;27;98603;-62
2023/09/10 02:06:04;;;;;;;17.95;16.30;;;;;;;;;;5011079;27;99222;-61
2023/09/10 02:08:30;;;;;;;17.35;15.50;;;;;;;;;;5011093;27;99768;-62
2023/09/10 02:10:57;;;;;;;16.55;15.13;;;;;;;;;;5015124;27;98510;-62
2023/09/10 02:13:23;;;;;;;21.52;17.15;;;;;;;;;;5010943;27;99471;-61
2023/09/10 02:15:50;;;;;;;20.83;13.95;;;;;;;;;;5010280;27;99233;-62
2023/09/10 02:18:16;;;;;;;21.95;19.88;;;;;;;;;;5014048;27;101471;-62
2023/09/10 02:20:42;;;;;;;24.58;22.23;;;;;;;;;;5015549;27;99854;-62
2023/09/10 02:23:09;;;;;;;19.42;17.52;;;;;;;;;;5014714;27;98644;-62
2023/09/10 02:25:35;;;;;;;19.75;17.20;;;;;;;;;;5015104;27;99138;-61
2023/09/10 02:28:05;;;;;;;19.63;16.92;;;;;;;;;;5010665;27;99459;-62
2023/09/10 02:30:32;;;;;;;24.30;21.88;;;;;;;;;;5010507;27;98525;-62
2023/09/10 02:32:58;;;;;;;26.05;19.60;;;;;;;;;;5014398;27;99279;-62
2023/09/10 02:35:24;;;;;;;24.98;21.85;;;;;;;;;;5010928;27;98619;-62
2023/09/10 02:37:51;;;;;;;20.10;18.13;;;;;;;;;;5010200;27;99522;-62
2023/09/10 02:40:17;;;;;;;18.90;16.88;;;;;;;;;;5014564;27;100149;-61
2023/09/10 02:42:44;;;;;;;17.77;16.02;;;;;;;;;;5011512;27;98470;-62
2023/09/10 02:45:10;;;;;;;16.98;14.63;;;;;;;;;;5017701;27;99221;-62
2023/09/10 02:47:37;;;;;;;20.85;18.90;;;;;;;;;;5013872;27;100594;-62
2023/09/10 02:50:04;;;;;;;19.13;17.08;;;;;;;;;;5010653;27;98828;-61
2023/09/10 02:52:30;;;;;;;21.25;19.13;;;;;;;;;;5010574;27;99325;-62
2023/09/10 02:54:57;;;;;;;19.48;17.80;;;;;;;;;;5012958;27;99448;-62
2023/09/10 02:57:23;;;;;;;21.75;19.20;;;;;;;;;;5012322;27;100426;-62
2023/09/10 02:59:50;;;;;;;20.98;19.10;;;;;;;;;;5013591;27;99533;-61
2023/09/10 03:02:16;;;;;;;21.10;19.02;;;;;;;;;;5013971;27;98917;-61
2023/09/10 03:04:43;;;;;;;21.40;19.25;;;;;;;;;;5009606;27;100142;-62
2023/09/10 03:07:09;;;;;;;20.00;18.35;;;;;;;;;;5010373;27;99487;-62
2023/09/10 03:09:35;;;;;;;21.75;19.63;;;;;;;;;;5010394;27;98631;-62
2023/09/10 03:12:20;;;;;;;21.20;19.05;;;;;;;;;;5009710;27;99180;-61
2023/09/10 03:14:47;;;;;;;19.90;18.17;;;;;;;;;;5009748;27;99494;-62
2023/09/10 03:17:13;;;;;;;18.73;17.02;;;;;;;;;;5016775;27;98623;-62
2023/09/10 03:19:40;;;;;;;19.70;18.08;;;;;;;;;;5010624;27;100514;-62
2023/09/10 03:22:07;;;;;;;21.38;19.30;;;;;;;;;;5010796;27;97670;-62
2023/09/10 03:24:33;;;;;;;20.10;17.75;;;;;;;;;;5013495;27;98450;-62
2023/09/10 03:27:00;;;;;;;21.42;19.42;;;;;;;;;;5010092;27;99498;-62
2023/09/10 03:29:26;;;;;;;24.25;22.10;;;;;;;;;;5013921;27;99337;-61
2023/09/10 03:31:53;;;;;;;22.98;20.77;;;;;;;;;;5009550;27;100028;-62
2023/09/10 03:34:19;;;;;;;23.73;21.25;;;;;;;;;;5014431;27;99679;-61
2023/09/10 03:36:46;;;;;;;21.30;19.58;;;;;;;;;;5010253;27;98521;-61
2023/09/10 03:39:12;;;;;;;20.40;18.17;;;;;;;;;;5012825;27;99191;-62
2023/09/10 03:41:38;;;;;;;23.85;15.88;;;;;;;;;;5009823;27;99201;-62
2023/09/10 03:44:05;;;;;;;19.77;15.63;;;;;;;;;;5010152;27;100217;-62
2023/09/10 03:46:31;;;;;;;17.08;15.70;;;;;;;;;;5013116;27;98727;-62
2023/09/10 03:48:58;;;;;;;23.63;21.23;;;;;;;;;;5009838;27;98622;-62
2023/09/10 03:51:26;;;;;;;22.73;20.75;;;;;;;;;;5007832;27;99266;-61
2023/09/10 03:53:53;;;;;;;23.45;21.13;;;;;;;;;;5008220;27;100208;-62
2023/09/10 03:56:19;;;;;;;23.52;21.38;;;;;;;;;;5009277;27;98772;-62
2023/09/10 03:58:45;;;;;;;29.38;26.95;;;;;;;;;;5014482;27;100326;-61
2023/09/10 04:01:12;;;;;;;30.40;27.60;;;;;;;;;;5020858;27;99878;-62
2023/09/10 04:03:38;;;;;;;27.25;24.55;;;;;;;;;;5009390;27;99222;-62
2023/09/10 04:06:05;;;;;;;30.50;27.70;;;;;;;;;;5008546;27;99479;-62
2023/09/10 04:08:31;;;;;;;31.00;27.98;;;;;;;;;;5009336;27;98524;-62
2023/09/10 04:10:57;;;;;;;31.05;28.15;;;;;;;;;;5013807;27;97977;-61
2023/09/10 04:13:25;;;;;;;27.20;24.55;;;;;;;;;;5009143;27;98749;-61
2023/09/10 04:15:51;;;;;;;25.27;22.83;;;;;;;;;;5012578;27;98375;-62
2023/09/10 04:18:18;;;;;;;28.48;22.40;;;;;;;;;;5016645;27;99194;-61
2023/09/10 04:20:44;;;;;;;23.38;20.88;;;;;;;;;;5011942;27;99482;-62
2023/09/10 04:23:10;;;;;;;25.17;22.60;;;;;;;;;;5009126;27;99557;-62
2023/09/10 04:25:37;;;;;;;25.35;22.83;;;;;;;;;;5017317;27;99538;-62
2023/09/10 04:28:03;;;;;;;25.17;22.80;;;;;;;;;;5012818;27;98528;-62
2023/09/10 04:30:32;;;;;;;28.45;22.60;;;;;;;;;;5008542;27;99613;-62
2023/09/10 04:32:59;;;;;;;29.17;26.33;;;;;;;;;;5008606;27;100452;-62
2023/09/10 04:35:25;;;;;;;26.98;22.33;;;;;;;;;;5008940;27;97995;-62
2023/09/10 04:37:52;;;;;;;25.52;21.67;;;;;;;;;;5009391;27;98633;-62
2023/09/10 04:40:18;;;;;;;24.08;21.83;;;;;;;;;;5008694;27;99481;-61
2023/09/10 04:42:45;;;;;;;28.92;26.30;;;;;;;;;;5011524;27;99471;-62
2023/09/10 04:45:11;;;;;;;28.10;25.10;;;;;;;;;;5012426;27;99469;-62
2023/09/10 04:47:38;;;;;;;29.23;26.35;;;;;;;;;;5012405;27;98510;-62
2023/09/10 04:50:06;;;;;;;27.70;25.20;;;;;;;;;;5008901;27;100285;-62
2023/09/10 04:52:32;;;;;;;27.48;25.00;;;;;;;;;;5008562;27;99399;-62
2023/09/10 04:54:58;;;;;;;24.73;22.02;;;;;;;;;;5008568;27;98767;-62
2023/09/10 04:57:25;;;;;;;22.15;19.90;;;;;;;;;;5008379;27;99208;-62
2023/09/10 04:59:52;;;;;;;27.52;23.17;;;;;;;;;;5008374;27;98737;-62
2023/09/10 05:02:18;;;;;;;29.33;26.52;;;;;;;;;;5013570;27;98768;-61
2023/09/10 05:04:45;;;;;;;29.52;26.85;;;;;;;;;;5011785;27;99670;-61
2023/09/10 05:07:11;;;;;;;30.15;25.45;;;;;;;;;;5007773;27;99312;-61
2023/09/10 05:09:37;;;;;;;35.75;32.47;;;;;;;;;;5014787;27;99867;-61
2023/09/10 05:12:04;;;;;;;29.92;23.92;;;;;;;;;;5014458;27;99578;-60
2023/09/10 05:14:30;;;;;;;27.13;24.20;;;;;;;;;;5008038;27;98627;-61
2023/09/10 05:16:57;;;;;;;26.85;24.60;;;;;;;;;;5011652;27;99218;-61
2023/09/10 05:19:26;;;;;;;28.05;25.15;;;;;;;;;;5008324;27;99670;-61
2023/09/10 05:21:52;;;;;;;31.27;28.48;;;;;;;;;;5008029;27;98529;-61
2023/09/10 05:24:19;;;;;;;26.88;24.55;;;;;;;;;;5009058;27;101071;-61
2023/09/10 05:26:45;;;;;;;32.97;30.15;;;;;;;;;;5010789;27;99454;-61
2023/09/10 05:29:11;;;;;;;25.75;23.48;;;;;;;;;;5016342;27;100374;-61
2023/09/10 05:31:38;;;;;;;25.63;23.23;;;;;;;;;;5006515;27;100200;-62
2023/09/10 05:34:04;;;;;;;31.23;28.17;;;;;;;;;;5007783;27;98565;-61
2023/09/10 05:36:31;;;;;;;30.10;27.58;;;;;;;;;;5012185;27;99452;-62
2023/09/10 05:38:57;;;;;;;29.83;27.25;;;;;;;;;;5007587;27;100433;-61
2023/09/10 05:41:25;;;;;;;25.73;23.13;;;;;;;;;;5015739;27;99200;-61
2023/09/10 05:43:52;;;;;;;28.67;25.13;;;;;;;;;;5019245;27;100322;-61
2023/09/10 05:46:18;;;;;;;26.60;24.05;;;;;;;;;;5018213;27;101543;-61
2023/09/10 05:48:45;;;;;;;22.75;20.63;;;;;;;;;;5012027;27;97923;-61
2023/09/10 05:51:11;;;;;;;22.60;20.30;;;;;;;;;;5011625;27;100378;-62
2023/09/10 05:53:40;;;;;;;21.90;19.73;;;;;;;;;;5007116;27;98513;-61
2023/09/10 05:56:06;;;;;;;29.83;26.98;;;;;;;;;;5011368;27;99176;-61
2023/09/10 05:58:33;;;;;;;29.83;27.05;;;;;;;;;;5006704;27;99532;-61
2023/09/10 06:00:59;;;;;;;30.08;27.33;;;;;;;;;;5008927;27;98929;-61
2023/09/10 06:03:25;;;;;;;24.55;22.27;;;;;;;;;;5011232;27;99276;-61
2023/09/10 06:05:52;;;;;;;27.08;24.35;;;;;;;;;;5011520;27;100482;-62
2023/09/10 06:08:18;;;;;;;29.15;26.35;;;;;;;;;;5007093;27;98662;-61
2023/09/10 06:10:45;;;;;;;23.88;20.83;;;;;;;;;;5011044;27;100377;-61
2023/09/10 06:13:11;;;;;;;25.85;23.27;;;;;;;;;;5008125;27;97799;-62
2023/09/10 06:15:38;;;;;;;28.33;25.52;;;;;;;;;;5006851;27;98503;-62
2023/09/10 06:18:04;;;;;;;27.75;24.90;;;;;;;;;;5014735;27;99539;-61
2023/09/10 06:20:31;;;;;;;24.63;21.05;;;;;;;;;;5006819;27;99705;-61
2023/09/10 06:22:57;;;;;;;23.73;20.85;;;;;;;;;;5007747;27;99965;-62
2023/09/10 06:25:24;;;;;;;28.42;25.50;;;;;;;;;;5007048;27;100563;-61
2023/09/10 06:27:50;;;;;;;26.50;23.88;;;;;;;;;;5011669;27;98683;-61
2023/09/10 06:30:17;;;;;;;27.45;24.52;;;;;;;;;;5010500;27;99271;-61
2023/09/10 06:32:43;;;;;;;26.33;22.50;;;;;;;;;;5007609;27;98862;-61
2023/09/10 06:35:09;;;;;;;28.75;25.92;;;;;;;;;;5006391;27;99258;-61
2023/09/10 06:37:37;;;;;;;28.45;25.63;;;;;;;;;;5009450;27;99054;-61
2023/09/10 06:40:03;;;;;;;28.50;25.83;;;;;;;;;;5010177;27;98640;-61
2023/09/10 06:42:30;;;;;;;26.00;23.42;;;;;;;;;;5010331;27;99060;-61
2023/09/10 06:44:56;;;;;;;24.63;22.27;;;;;;;;;;5009471;27;100395;-61
2023/09/10 06:47:22;;;;;;;25.45;23.02;;;;;;;;;;5022858;27;98720;-61
2023/09/10 06:49:49;;;;;;;24.85;22.38;;;;;;;;;;5011229;27;100381;-61
2023/09/10 06:52:15;;;;;;;27.08;21.33;;;;;;;;;;5013613;27;99419;-61
2023/09/10 06:54:42;;;;;;;27.33;23.42;;;;;;;;;;5010651;27;99214;-61
2023/09/10 06:57:08;;;;;;;28.10;21.50;;;;;;;;;;5010564;27;100434;-61
2023/09/10 06:59:34;;;;;;;28.38;22.83;;;;;;;;;;5010245;27;98908;-61
2023/09/10 07:02:00;;;;;;;24.08;21.13;;;;;;;;;;5010559;27;99217;-61
2023/09/10 07:04:27;;;;;;;32.85;24.00;;;;;;;;;;5013840;27;99332;-61
2023/09/10 07:06:53;;;;;;;36.17;25.73;;;;;;;;;;5010893;27;98656;-61
2023/09/10 07:09:21;;;;;;;31.35;27.95;;;;;;;;;;5018040;27;100310;-61
2023/09/10 07:11:48;;;;;;;27.90;23.63;;;;;;;;;;5008844;27;99487;-61
2023/09/10 07:14:15;;;;;;;33.78;27.25;;;;;;;;;;5019711;27;98589;-61
2023/09/10 07:16:41;;;;;;;26.83;23.08;;;;;;;;;;5015313;27;99631;-61
2023/09/10 07:19:08;;;;;;;31.73;25.05;;;;;;;;;;5010345;27;98522;-61
2023/09/10 07:21:34;;;;;;;30.42;24.67;;;;;;;;;;5018190;27;99367;-61
2023/09/10 07:24:03;;;;;;;31.92;25.67;;;;;;;;;;5010652;27;99437;-61
2023/09/10 07:26:29;;;;;;;29.50;22.00;;;;;;;;;;5014166;27;97847;-62
2023/09/10 07:28:56;;;;;;;31.73;24.63;;;;;;;;;;5009688;27;98561;-61
2023/09/10 07:31:22;;;;;;;34.63;26.13;;;;;;;;;;5008770;27;99700;-61
2023/09/10 07:33:48;;;;;;;25.90;23.10;;;;;;;;;;5013749;27;99341;-61
2023/09/10 07:36:15;;;;;;;32.67;27.27;;;;;;;;;;5017044;27;101051;-61
2023/09/10 07:38:41;;;;;;;29.73;24.42;;;;;;;;;;5013211;27;98592;-61
2023/09/10 07:41:08;;;;;;;30.05;23.25;;;;;;;;;;5013492;27;100632;-61
2023/09/10 07:43:34;;;;;;;35.22;26.17;;;;;;;;;;5013754;27;99511;-61
2023/09/10 07:46:00;;;;;;;32.35;26.52;;;;;;;;;;5007830;27;98615;-61
2023/09/10 07:48:27;;;;;;;35.67;25.98;;;;;;;;;;5013196;27;100373;-61
2023/09/10 07:50:54;;;;;;;32.55;26.42;;;;;;;;;;5010493;27;100070;-61
2023/09/10 07:53:21;;;;;;;31.92;27.83;;;;;;;;;;5009702;27;98700;-60
2023/09/10 07:55:47;;;;;;;41.15;28.17;;;;;;;;;;5008954;27;99254;-61
2023/09/10 07:58:14;;;;;;;35.95;26.50;;;;;;;;;;5016497;27;100209;-61
2023/09/10 08:00:40;;;;;;;34.53;25.48;;;;;;;;;;5013668;27;99920;-61
2023/09/10 08:03:07;;;;;;;30.55;26.50;;;;;;;;;;5009099;27;99458;-60
2023/09/10 08:05:34;;;;;;;34.92;27.52;;;;;;;;;;5012633;27;98562;-61
2023/09/10 08:08:02;;;;;;;37.42;27.40;;;;;;;;;;5009655;27;99250;-61
2023/09/10 08:10:29;;;;;;;32.47;27.25;;;;;;;;;;5009233;27;99424;-61
2023/09/10 08:12:56;;;;;;;37.38;27.35;;;;;;;;;;5009327;27;98409;-61
2023/09/10 08:15:22;;;;;;;34.88;27.17;;;;;;;;;;5009223;27;99007;-61
2023/09/10 08:17:49;;;;;;;35.08;25.10;;;;;;;;;;5016981;27;99479;-61
2023/09/10 08:20:16;;;;;;;36.53;26.40;;;;;;;;;;5012186;27;98590;-61
2023/09/10 08:22:43;;;;;;;34.60;26.25;;;;;;;;;;5009193;27;100415;-60
2023/09/10 08:25:09;;;;;;;35.67;25.60;;;;;;;;;;5008286;27;98700;-61
2023/09/10 08:27:36;;;;;;;39.60;25.95;;;;;;;;;;5009173;27;99290;-61
2023/09/10 08:30:05;;;;;;;36.45;26.23;;;;;;;;;;5012489;27;99400;-61
2023/09/10 08:32:32;;;;;;;36.10;25.45;;;;;;;;;;5012887;27;98504;-61
2023/09/10 08:34:59;;;;;;;39.40;25.00;;;;;;;;;;5008521;27;99739;-61
2023/09/10 08:37:25;;;;;;;39.85;25.60;;;;;;;;;;5009273;27;100481;-62
2023/09/10 08:39:54;;;;;;;36.47;24.50;;;;;;;;;;5012883;27;97884;-61
2023/09/10 08:42:35;;;;;;;34.47;26.10;;;;;;;;;;5012689;27;99494;-61
2023/09/10 08:45:04;;;;;;;36.03;25.48;;;;;;;;;;5008363;27;98914;-61
2023/09/10 08:47:36;;;;;;;48.07;26.03;;;;;;;;;;5008738;27;99451;-61
2023/09/10 08:50:06;;;;;;;37.10;23.70;;;;;;;;;;5011093;27;99782;-61
2023/09/10 08:52:34;;;;;;;34.80;24.48;;;;;;;;;;5006857;27;98779;-61
2023/09/10 08:55:00;;;;;;;35.38;24.63;;;;;;;;;;5017429;27;101788;-61
2023/09/10 08:57:29;;;;;;;39.42;25.25;;;;;;;;;;5012593;27;99493;-61
2023/09/10 08:59:56;;;;;;;36.58;23.63;;;;;;;;;;5007176;27;98609;-61
2023/09/10 09:02:22;;;;;;;44.15;25.92;;;;;;;;;;5011455;27;99078;-62
2023/09/10 09:04:49;;;;;;;34.97;24.08;;;;;;;;;;5010968;27;97773;-61
2023/09/10 09:07:18;;;;;;;39.40;24.38;;;;;;;;;;5013381;27;98600;-61
2023/09/10 09:09:48;;;;;;;30.67;22.97;;;;;;;;;;5007476;27;99523;-61
2023/09/10 09:12:14;;;;;;;29.95;22.10;;;;;;;;;;5006292;27;99222;-61
2023/09/10 09:14:42;;;;;;;32.92;22.80;;;;;;;;;;5007322;27;100188;-61
2023/09/10 09:17:13;;;;;;;38.38;21.45;;;;;;;;;;5008737;27;99812;-61
2023/09/10 09:19:44;;;;;;;28.13;20.08;;;;;;;;;;5016394;27;98585;-61
2023/09/10 09:22:11;;;;;;;30.58;20.40;;;;;;;;;;5013747;27;99299;-61
2023/09/10 09:24:37;;;;;;;33.75;22.17;;;;;;;;;;5012208;27;99464;-61
2023/09/10 09:27:04;;;;;;;29.20;20.77;;;;;;;;;;5019690;27;100280;-61
2023/09/10 09:29:31;;;;;;;29.38;20.17;;;;;;;;;;5008541;27;98732;-63
2023/09/10 09:31:57;;;;;;;28.65;18.63;;;;;;;;;;5008617;27;98503;-61
2023/09/10 09:34:24;;;;;;;32.42;20.70;;;;;;;;;;5007955;27;100280;-61
2023/09/10 09:36:51;;;;;;;35.05;20.00;;;;;;;;;;5006814;27;101370;-61
2023/09/10 09:39:18;;;;;;;29.70;19.70;;;;;;;;;;5008266;27;98597;-61
2023/09/10 09:41:51;;;;;;;29.48;18.98;;;;;;;;;;5007711;27;99156;-61
2023/09/10 09:44:20;;;;;;;28.30;18.77;;;;;;;;;;5007473;27;99476;-61
2023/09/10 09:46:47;;;;;;;25.70;17.77;;;;;;;;;;5013472;27;99083;-61
2023/09/10 09:49:13;;;;;;;37.45;19.30;;;;;;;;;;5009918;27;100478;-61
2023/09/10 09:51:40;;;;;;;28.95;17.42;;;;;;;;;;5007663;27;98667;-61
2023/09/10 09:54:07;;;;;;;26.88;16.92;;;;;;;;;;5007635;27;99281;-61
2023/09/10 09:56:35;;;;;;;24.35;16.42;;;;;;;;;;5007599;27;99292;-61
2023/09/10 09:59:02;;;;;;;34.88;23.38;;;;;;;;;;5007580;27;98925;-61
2023/09/10 10:01:29;;;;;;;30.45;20.15;;;;;;;;;;5015350;27;99632;-61
2023/09/10 10:03:59;;;;;;;37.95;31.17;;;;;;;;;;5007401;27;100573;-61
2023/09/10 10:06:25;;;;;;;27.20;20.02;;;;;;;;;;5007571;27;98736;-61
2023/09/10 10:08:52;;;;;;;43.70;35.55;;;;;;;;;;5014251;27;99655;-61
2023/09/10 10:11:31;;;;;;;36.83;24.20;;;;;;;;;;5012978;27;98436;-61
2023/09/10 10:13:59;;;;;;;39.38;20.13;;;;;;;;;;5015513;27;99240;-61
2023/09/10 10:16:26;;;;;;;22.65;11.55;;;;;;;;;;5014970;27;99486;-61
2023/09/10 10:18:53;;;;;;;25.27;13.40;;;;;;;;;;5011395;27;97788;-61
2023/09/10 10:21:21;;;;;;;19.40;12.15;;;;;;;;;;5011622;27;98748;-61
2023/09/10 10:23:47;;;;;;;67.63;58.42;;;;;;;;;;5012780;27;100534;-61
2023/09/10 10:26:15;;;;;;;72.32;65.57;;;;;;;;;;5011121;27;99328;-62
2023/09/10 10:28:44;;;;;;;65.45;57.65;;;;;;;;;;5013683;27;100501;-62
2023/09/10 10:31:17;;;;;;;37.28;33.53;;;;;;;;;;5015805;27;98700;-62
2023/09/10 10:33:48;;;;;;;19.23;7.65;;;;;;;;;;5013479;27;98881;-62
2023/09/10 10:36:27;;;;;;;23.20;11.10;;;;;;;;;;5022654;27;100593;-61
2023/09/10 10:38:53;;;;;;;22.13;9.50;;;;;;;;;;5010407;27;98531;-61
2023/09/10 10:41:23;;;;;;;18.50;10.35;;;;;;;;;;5015909;27;99441;-61
2023/09/10 10:43:55;;;;;;;17.88;8.40;;;;;;;;;;5013214;27;98878;-61
2023/09/10 10:46:24;;;;;;;128.13;118.05;;;;;;;;;;5013243;27;98886;-61
2023/09/10 10:48:50;;;;;;;18.07;6.57;;;;;;;;;;5016565;27;99270;-62
2023/09/10 10:51:17;;;;;;;36.70;31.13;;;;;;;;;;5015212;27;100293;-62
2023/09/10 10:53:46;;;;;;;19.08;13.07;;;;;;;;;;5011465;27;98522;-61
2023/09/10 10:56:13;;;;;;;18.05;6.88;;;;;;;;;;5010155;27;99582;-60
2023/09/10 10:58:41;;;;;;;22.77;12.60;;;;;;;;;;5009171;27;98952;-61
2023/09/10 11:01:09;;;;;;;105.63;96.90;;;;;;;;;;5010488;27;100368;-60
2023/09/10 11:03:36;;;;;;;22.50;8.32;;;;;;;;;;5010144;27;99741;-60
2023/09/10 11:06:07;;;;;;;37.30;33.50;;;;;;;;;;5010826;27;98741;-60
2023/09/10 11:08:33;;;;;;;26.08;6.20;;;;;;;;;;5014857;27;98019;-61
2023/09/10 11:11:01;;;;;;;115.45;106.15;;;;;;;;;;5010603;27;100488;-60
2023/09/10 11:13:27;;;;;;;16.20;12.65;;;;;;;;;;5012917;27;98667;-61
2023/09/10 11:16:06;;;;;;;24.60;13.05;;;;;;;;;;5008966;27;100596;-60
2023/09/10 11:18:35;;;;;;;70.47;64.80;;;;;;;;;;5010239;27;98604;-61
2023/09/10 11:21:05;;;;;;;39.65;30.02;;;;;;;;;;5014561;27;99233;-61
2023/09/10 11:23:33;;;;;;;12.93;5.90;;;;;;;;;;5011330;27;99461;-61
2023/09/10 11:26:14;;;;;;;15.02;6.13;;;;;;;;;;5011119;27;98613;-60
2023/09/10 11:28:52;;;;;;;133.43;122.88;;;;;;;;;;5011157;27;100193;-60
2023/09/10 11:31:41;;;;;;;62.05;56.83;;;;;;;;;;5008601;27;99793;-61
2023/09/10 11:36:43;;;;;;;32.92;20.23;;;;;;;;;;5015479;27;99477;-61
2023/09/10 11:39:10;;;;;;;134.98;124.57;;;;;;;;;;5009173;27;98477;-60
2023/09/10 11:41:36;;;;;;;152.80;140.57;;;;;;;;;;5025905;27;100639;-60
2023/09/10 11:44:03;;;;;;;93.38;84.40;;;;;;;;;;5008756;27;99856;-60
2023/09/10 11:46:29;;;;;;;147.82;135.63;;;;;;;;;;5011042;27;99969;-60
2023/09/10 11:48:58;;;;;;;132.82;121.38;;;;;;;;;;5007885;27;99146;-60
2023/09/10 11:51:24;;;;;;;74.10;67.38;;;;;;;;;;5012818;27;100775;-60
2023/09/10 11:53:50;;;;;;;88.93;81.63;;;;;;;;;;5009070;27;98481;-60
2023/09/10 11:56:17;;;;;;;202.90;186.50;;;;;;;;;;5013885;27;98444;-60
2023/09/10 11:58:43;;;;;;;115.65;105.75;;;;;;;;;;5012383;27;98788;-60
2023/09/10 12:01:10;;;;;;;139.48;126.95;;;;;;;;;;5008526;27;98669;-60
2023/09/10 12:03:39;;;;;;;158.68;145.80;;;;;;;;;;5008083;27;99399;-60
2023/09/10 12:06:05;;;;;;;239.70;221.00;;;;;;;;;;5007993;27;99537;-60
2023/09/10 12:08:31;;;;;;;274.65;251.77;;;;;;;;;;5011100;27;99834;-60
2023/09/10 12:11:03;;;;;;;205.32;187.98;;;;;;;;;;5009568;27;99300;-60
2023/09/10 12:13:32;;;;;;;273.15;250.13;;;;;;;;;;5008826;27;98882;-60
2023/09/10 12:15:58;;;;;;;263.02;239.90;;;;;;;;;;5009346;27;99305;-61
2023/09/10 12:18:25;;;;;;;256.77;235.70;;;;;;;;;;5008251;27;99439;-58
2023/09/10 12:20:52;;;;;;;183.57;168.05;;;;;;;;;;5010902;27;98680;-58
2023/09/10 12:23:19;;;;;;;167.85;153.55;;;;;;;;;;5011532;27;99879;-59
2023/09/10 12:25:52;;;;;;;134.13;121.43;;;;;;;;;;5008101;27;98646;-58
2023/09/10 12:28:19;;;;;;;138.05;126.85;;;;;;;;;;5008205;27;99137;-59
2023/09/10 12:30:46;;;;;;;119.05;109.25;;;;;;;;;;5007359;27;100320;-59
2023/09/10 12:33:12;;;;;;;119.25;108.93;;;;;;;;;;5007640;27;98551;-59
2023/09/10 12:35:39;;;;;;;141.85;129.98;;;;;;;;;;5006805;27;99503;-59
2023/09/10 12:38:08;;;;;;;133.98;121.15;;;;;;;;;;5012188;27;99590;-59
2023/09/10 12:40:37;;;;;;;122.97;111.38;;;;;;;;;;5011239;27;98654;-59
2023/09/10 12:43:04;;;;;;;185.05;169.48;;;;;;;;;;5015303;27;99523;-60
2023/09/10 12:45:30;;;;;;;210.90;193.98;;;;;;;;;;5011842;27;99455;-60
2023/09/10 12:47:57;;;;;;;224.45;205.02;;;;;;;;;;5009073;27;99913;-59
2023/09/10 12:50:23;;;;;;;244.85;224.38;;;;;;;;;;5006218;27;100897;-60
2023/09/10 12:52:53;;;;;;;360.90;331.20;;;;;;;;;;5006705;27;99961;-59
2023/09/10 12:55:20;;;;;;;331.17;304.35;;;;;;;;;;5006059;27;100774;-59
2023/09/10 12:57:56;;;;;;;371.73;341.50;;;;;;;;;;5005412;27;100856;-60
2023/09/10 13:00:23;;;;;;;346.50;318.45;;;;;;;;;;5007356;27;100366;-60
2023/09/10 13:02:52;;;;;;;345.75;317.98;;;;;;;;;;5010385;27;100629;-60
2023/09/10 13:05:19;;;;;;;328.98;302.60;;;;;;;;;;5010067;27;100913;-60
2023/09/10 13:07:46;;;;;;;391.92;360.30;;;;;;;;;;5005591;27;104476;-60
2023/09/10 13:10:12;;;;;;;355.35;324.92;;;;;;;;;;5004775;27;101973;-61
2023/09/10 13:12:39;;;;;;;326.60;299.97;;;;;;;;;;5008512;27;100288;-60
2023/09/10 13:15:06;;;;;;;364.15;334.65;;;;;;;;;;5004876;27;101086;-60
2023/09/10 13:17:32;;;;;;;416.02;382.10;;;;;;;;;;5009792;27;103045;-60
2023/09/10 13:19:59;;;;;;;431.77;396.10;;;;;;;;;;5004732;27;102220;-60
2023/09/10 13:22:26;;;;;;;448.50;411.75;;;;;;;;;;5007783;27;102938;-61
2023/09/10 13:24:54;;;;;;;401.13;368.50;;;;;;;;;;5007809;27;103145;-60
2023/09/10 13:27:21;;;;;;;424.33;386.30;;;;;;;;;;5005051;27;101858;-60
2023/09/10 13:29:47;;;;;;;418.83;382.37;;;;;;;;;;5008789;27;103446;-60
2023/09/10 13:32:14;;;;;;;344.00;315.67;;;;;;;;;;5008166;27;101260;-60
2023/09/10 13:34:40;;;;;;;383.33;348.42;;;;;;;;;;5005095;27;101925;-61
2023/09/10 13:37:07;;;;;;;478.07;437.67;;;;;;;;;;5004977;27;102397;-60
2023/09/10 13:39:34;;;;;;;398.33;361.98;;;;;;;;;;5004880;27;101337;-60
2023/09/10 13:42:01;;;;;;;396.67;360.30;;;;;;;;;;5005267;27;101898;-60
2023/09/10 13:44:28;;;;;;;418.33;380.95;;;;;;;;;;5009561;27;103961;-60
2023/09/10 13:46:54;;;;;;;409.08;374.75;;;;;;;;;;5012440;27;101375;-60
2023/09/10 13:49:21;;;;;;;416.30;379.08;;;;;;;;;;5004491;27;102095;-60
2023/09/10 13:51:47;;;;;;;424.63;387.73;;;;;;;;;;5004378;27;101214;-60
2023/09/10 13:54:13;;;;;;;492.90;449.27;;;;;;;;;;5003894;27;101916;-60
2023/09/10 13:56:40;;;;;;;406.55;371.00;;;;;;;;;;5007964;27;102088;-60
2023/09/10 13:59:06;;;;;;;487.97;444.13;;;;;;;;;;5004348;27;101338;-60
2023/09/10 14:01:33;;;;;;;476.17;434.00;;;;;;;;;;5004771;27;102096;-60
2023/09/10 14:04:00;;;;;;;464.75;423.83;;;;;;;;;;5011940;27;102249;-60
2023/09/10 14:06:26;;;;;;;459.38;418.38;;;;;;;;;;5004259;27;101129;-60
2023/09/10 14:08:53;;;;;;;481.40;437.83;;;;;;;;;;5006900;27;102655;-60
2023/09/10 14:11:19;;;;;;;435.77;395.60;;;;;;;;;;5012449;27;101179;-60
2023/09/10 14:13:46;;;;;;;432.23;392.70;;;;;;;;;;5003638;27;102971;-60